Time;durP1;ratioP1;P1;durP2;ratioP2;P2;SDS_P1;SDS_P2;PMS_P1;PMS_P2;Temp;Humidity;BMP_temperature;BMP_pressure;BME280_temperature;BME280_humidity;BME280_pressure;Samples;Min_cycle;Max_cycle;Signal;HPM_P1;HPM_P2
2021/08/17 00:00:11;;;;;;;36.22;20.77;;;;;;;15.59;69.17;100255.81;4996365;28;20085;-62
2021/08/17 00:03:01;;;;;;;37.20;20.73;;;;;;;15.57;69.21;100260.16;4994959;28;20061;-62
2021/08/17 00:06:00;;;;;;;41.80;20.50;;;;;;;15.56;69.07;100261.06;4995020;28;20124;-62
2021/08/17 00:08:47;;;;;;;38.55;21.95;;;;;;;15.57;69.14;100270.59;4995447;28;20418;-63
2021/08/17 00:11:45;;;;;;;38.70;20.92;;;;;;;15.55;68.92;100267.16;4996312;28;20402;-62
2021/08/17 00:14:41;;;;;;;39.63;21.17;;;;;;;15.53;69.18;100271.50;4995256;28;20571;-62
2021/08/17 00:17:31;;;;;;;40.40;21.13;;;;;;;15.52;69.17;100269.75;4995336;28;20108;-62
2021/08/17 00:20:26;;;;;;;46.63;21.50;;;;;;;15.52;69.10;100264.53;4994999;28;20089;-63
2021/08/17 00:23:14;;;;;;;42.58;22.23;;;;;;;15.50;69.10;100267.13;4994675;28;20201;-62
2021/08/17 00:26:07;;;;;;;35.95;20.48;;;;;;;15.48;69.06;100268.91;4994414;28;20065;-63
2021/08/17 00:28:56;;;;;;;38.53;21.65;;;;;;;15.47;69.17;100269.78;4994950;28;20065;-62
2021/08/17 00:31:42;;;;;;;37.13;21.17;;;;;;;15.47;69.23;100271.50;4995886;28;20045;-62
2021/08/17 00:34:30;;;;;;;41.33;21.67;;;;;;;15.48;69.33;100260.19;4994631;28;20073;-62
2021/08/17 00:37:29;;;;;;;39.67;21.52;;;;;;;15.46;69.13;100269.75;4995064;28;20157;-62
2021/08/17 00:40:25;;;;;;;38.67;21.35;;;;;;;15.44;69.07;100269.78;4994561;28;20077;-63
2021/08/17 00:43:15;;;;;;;42.67;21.38;;;;;;;15.42;69.29;100268.00;4995761;28;20530;-64
2021/08/17 00:46:08;;;;;;;41.17;21.67;;;;;;;15.41;68.77;100261.94;4995944;28;20445;-64
2021/08/17 00:48:58;;;;;;;39.75;21.20;;;;;;;15.39;69.28;100263.66;4994800;28;20508;-62
2021/08/17 00:52:06;;;;;;;36.88;20.77;;;;;;;15.38;69.19;100261.94;4994563;28;20516;-62
2021/08/17 00:54:51;;;;;;;40.47;22.45;;;;;;;15.39;69.23;100263.66;4995682;28;20057;-62
2021/08/17 00:57:43;;;;;;;36.10;21.63;;;;;;;15.37;69.19;100258.47;4995329;28;20141;-62
2021/08/17 01:00:28;;;;;;;35.55;20.25;;;;;;;15.37;69.29;100260.19;4994558;28;20452;-62
2021/08/17 01:03:18;;;;;;;39.58;21.48;;;;;;;15.36;69.34;100251.50;4993186;28;20405;-62
2021/08/17 01:06:09;;;;;;;41.63;21.23;;;;;;;15.36;69.28;100253.22;4995261;28;20115;-62
2021/08/17 01:09:02;;;;;;;40.55;20.63;;;;;;;15.36;69.12;100246.28;4994033;28;20047;-62
2021/08/17 01:11:54;;;;;;;39.30;20.45;;;;;;;15.36;69.17;100258.44;4993840;28;20080;-62
2021/08/17 01:14:46;;;;;;;36.63;20.73;;;;;;;15.35;69.35;100256.69;4994802;28;20065;-63
2021/08/17 01:17:40;;;;;;;33.55;19.95;;;;;;;15.33;69.19;100261.94;4993882;28;20057;-63
2021/08/17 01:20:25;;;;;;;42.20;20.65;;;;;;;15.31;69.18;100254.97;4994706;28;20402;-62
2021/08/17 01:23:09;;;;;;;35.45;20.10;;;;;;;15.29;69.33;100247.13;4994206;28;20096;-62
2021/08/17 01:25:53;;;;;;;34.97;20.10;;;;;;;15.30;69.22;100245.41;4993878;28;20409;-62
2021/08/17 01:28:46;;;;;;;54.63;23.40;;;;;;;15.29;69.15;100248.88;4995313;28;20477;-62
2021/08/17 01:31:38;;;;;;;40.55;21.15;;;;;;;15.29;69.08;100247.13;4993724;28;20072;-62
2021/08/17 01:34:28;;;;;;;31.98;18.98;;;;;;;15.29;69.31;100241.06;4995013;28;20101;-62
2021/08/17 01:37:18;;;;;;;38.03;21.13;;;;;;;15.28;69.14;100249.75;4993714;28;20049;-62
2021/08/17 01:40:14;;;;;;;35.67;19.08;;;;;;;15.27;69.33;100254.09;4993804;28;20045;-62
2021/08/17 01:43:06;;;;;;;39.67;20.88;;;;;;;15.26;69.13;100254.09;4993361;28;20089;-62
2021/08/17 01:46:01;;;;;;;37.20;19.88;;;;;;;15.25;69.21;100261.06;4993170;28;20093;-62
2021/08/17 01:48:46;;;;;;;42.63;20.85;;;;;;;15.24;69.35;100254.13;4994237;28;20052;-62
2021/08/17 01:51:30;;;;;;;34.15;19.77;;;;;;;15.23;69.42;100255.84;4994649;28;20077;-63
2021/08/17 01:54:23;;;;;;;34.20;18.88;;;;;;;15.19;69.26;100245.41;4993349;28;20053;-64
2021/08/17 01:57:22;;;;;;;41.63;20.92;;;;;;;15.20;69.39;100252.38;4992980;28;20544;-64
2021/08/17 02:00:10;;;;;;;36.22;18.90;;;;;;;15.20;69.36;100249.75;4993839;28;20049;-62
2021/08/17 02:03:00;;;;;;;37.00;19.58;;;;;;;15.20;69.34;100250.59;5008669;28;20096;-62
2021/08/17 02:05:50;;;;;;;36.95;20.00;;;;;;;15.19;69.29;100242.78;4998664;28;20512;-62
2021/08/17 02:08:42;;;;;;;34.03;19.77;;;;;;;15.19;69.34;100245.41;4999474;28;20060;-63
2021/08/17 02:11:26;;;;;;;34.92;19.63;;;;;;;15.18;69.23;100252.34;4998601;28;20523;-63
2021/08/17 02:14:16;;;;;;;36.90;19.88;;;;;;;15.18;69.28;100244.50;4998483;28;20558;-62
2021/08/17 02:17:06;;;;;;;41.33;19.83;;;;;;;15.19;69.47;100248.88;4999349;28;20111;-62
2021/08/17 02:19:59;;;;;;;44.75;21.52;;;;;;;15.18;69.50;100247.13;4998852;28;20073;-62
2021/08/17 02:22:55;;;;;;;37.97;20.02;;;;;;;15.19;69.32;100242.78;4999077;28;20080;-62
2021/08/17 02:25:45;;;;;;;35.95;21.13;;;;;;;15.19;69.42;100233.19;5013367;28;20049;-62
2021/08/17 02:28:34;;;;;;;39.92;21.40;;;;;;;15.20;69.51;100239.31;5013318;28;20064;-62
2021/08/17 02:31:26;;;;;;;36.55;21.00;;;;;;;15.19;69.43;100246.25;4998960;28;20045;-63
2021/08/17 02:34:16;;;;;;;40.42;21.50;;;;;;;15.20;69.26;100245.38;5013889;28;20053;-62
2021/08/17 02:37:00;;;;;;;37.00;20.27;;;;;;;15.20;69.44;100241.91;4999014;28;20044;-62
2021/08/17 02:39:45;;;;;;;38.50;22.15;;;;;;;15.18;69.58;100241.91;5013604;28;20108;-62
2021/08/17 02:42:40;;;;;;;;;;;;;;;15.18;69.34;100241.03;4999217;28;20049;-64
2021/08/17 02:45:30;;;;;;;38.47;20.45;;;;;;;15.17;69.86;100245.41;4997748;28;20020;-64
2021/08/17 02:48:18;;;;;;;42.65;22.15;;;;;;;15.16;69.50;100241.06;4998880;28;20119;-64
2021/08/17 02:51:02;;;;;;;40.42;21.48;;;;;;;15.16;69.61;100241.06;4998926;28;20045;-62
2021/08/17 02:53:52;;;;;;;40.33;22.77;;;;;;;15.15;69.43;100239.31;5013060;28;20057;-62
2021/08/17 02:56:41;;;;;;;39.95;21.45;;;;;;;15.15;69.58;100239.31;4998858;28;20053;-62
2021/08/17 02:59:26;;;;;;;42.08;21.50;;;;;;;15.16;69.43;100248.00;5013352;28;20476;-64
2021/08/17 03:02:12;;;;;;;43.95;22.95;;;;;;;15.14;69.56;100241.91;4992729;28;20076;-64
2021/08/17 03:04:59;;;;;;;42.67;22.48;;;;;;;15.15;69.59;100238.44;4992437;28;20093;-64
2021/08/17 03:07:51;;;;;;;47.22;22.45;;;;;;;15.13;69.57;100237.56;4993780;28;20050;-63
2021/08/17 03:10:38;;;;;;;42.95;21.77;;;;;;;15.12;69.50;100226.25;4992519;28;20053;-63
2021/08/17 03:13:27;;;;;;;39.85;22.30;;;;;;;15.13;69.60;100237.56;4992732;28;20402;-63
2021/08/17 03:16:23;;;;;;;43.08;23.35;;;;;;;15.11;69.56;100237.56;4992804;28;20418;-64
2021/08/17 03:19:08;;;;;;;44.75;22.65;;;;;;;15.14;69.58;100234.06;4993839;28;20052;-63
2021/08/17 03:22:06;;;;;;;39.75;21.90;;;;;;;15.10;69.58;100222.78;4992456;28;20060;-63
2021/08/17 03:24:53;;;;;;;46.60;23.50;;;;;;;15.10;69.76;100233.22;4992720;28;20049;-63
2021/08/17 03:27:43;;;;;;;39.15;22.23;;;;;;;15.12;69.83;100227.97;4996836;28;20057;-63
2021/08/17 03:30:34;;;;;;;41.92;23.45;;;;;;;15.08;69.61;100221.91;4996106;28;20053;-63
2021/08/17 03:33:27;;;;;;;38.05;22.38;;;;;;;15.10;69.68;100225.38;4995874;28;20575;-64
2021/08/17 03:36:20;;;;;;;42.67;22.23;;;;;;;15.07;69.52;100233.19;4995901;28;20597;-64
2021/08/17 03:39:09;;;;;;;45.33;23.10;;;;;;;15.07;69.74;100235.81;4996062;28;20056;-64
2021/08/17 03:41:56;;;;;;;43.47;23.25;;;;;;;15.08;69.67;100232.34;4996060;28;20097;-64
2021/08/17 03:44:43;;;;;;;45.72;23.58;;;;;;;15.07;69.67;100238.41;4995710;28;20053;-63
2021/08/17 03:47:38;;;;;;;41.65;23.75;;;;;;;15.06;69.59;100240.19;4996771;28;20053;-63
2021/08/17 03:50:22;;;;;;;38.00;21.77;;;;;;;15.07;69.54;100235.81;4996930;28;20513;-64
2021/08/17 03:53:12;;;;;;;41.10;23.05;;;;;;;15.06;69.63;100234.97;4996567;28;20061;-63
2021/08/17 03:55:59;;;;;;;41.97;23.52;;;;;;;15.05;69.81;100237.53;4995968;28;20077;-63
2021/08/17 03:58:52;;;;;;;39.65;24.00;;;;;;;15.06;69.77;100232.34;4995861;28;20077;-63
2021/08/17 04:01:41;;;;;;;44.20;23.02;;;;;;;15.04;69.85;100227.97;4998998;28;20057;-63
2021/08/17 04:04:25;;;;;;;46.95;24.38;;;;;;;15.04;69.83;100223.63;5000754;28;20045;-64
2021/08/17 04:07:09;;;;;;;40.50;22.67;;;;;;;15.02;69.75;100227.13;5015903;28;20137;-64
2021/08/17 04:09:59;;;;;;;42.13;22.30;;;;;;;15.02;69.87;100232.34;5015794;28;20132;-64
2021/08/17 04:12:51;;;;;;;42.25;22.90;;;;;;;15.02;69.68;100228.00;5000833;28;20128;-64
2021/08/17 04:15:36;;;;;;;41.67;23.58;;;;;;;15.01;69.65;100235.81;5015495;28;20111;-64
2021/08/17 04:18:30;;;;;;;46.78;21.77;;;;;;;14.99;69.77;100233.19;5001026;28;20482;-64
2021/08/17 04:21:14;;;;;;;41.58;23.35;;;;;;;15.00;69.86;100239.31;5000951;28;20041;-62
2021/08/17 04:23:59;;;;;;;38.83;22.33;;;;;;;14.98;69.64;100239.28;5001057;28;20546;-62
2021/08/17 04:26:56;;;;;;;42.45;21.60;;;;;;;14.97;69.91;100240.16;5000699;28;20045;-62
2021/08/17 04:29:43;;;;;;;36.40;21.15;;;;;;;14.98;69.63;100238.44;5015821;28;20057;-63
2021/08/17 04:32:26;;;;;;;39.67;22.55;;;;;;;14.97;69.94;100239.28;5000801;28;20045;-63
2021/08/17 04:35:19;;;;;;;48.47;22.38;;;;;;;14.98;69.63;100246.25;5000778;28;20080;-63
2021/08/17 04:38:05;;;;;;;36.88;21.17;;;;;;;14.95;70.02;100251.47;5015000;28;20544;-63
2021/08/17 04:40:52;;;;;;;41.15;22.15;;;;;;;14.95;69.94;100252.31;4999923;28;20044;-63
2021/08/17 04:43:39;;;;;;;38.70;21.02;;;;;;;14.94;69.73;100254.94;5000565;28;20056;-62
2021/08/17 04:46:23;;;;;;;34.30;19.83;;;;;;;14.92;69.76;100250.59;5000008;28;20049;-62
2021/08/17 04:49:08;;;;;;;36.40;21.08;;;;;;;14.91;69.84;100253.22;5015159;28;20524;-63
2021/08/17 04:52:00;;;;;;;37.58;20.63;;;;;;;14.90;69.84;100260.16;5015424;28;20124;-62
2021/08/17 04:54:50;;;;;;;34.97;20.20;;;;;;;14.89;69.71;100260.16;5000006;28;20596;-63
2021/08/17 04:57:57;;;;;;;39.45;19.45;;;;;;;14.89;69.58;100249.72;4999924;28;20563;-62
2021/08/17 05:00:50;;;;;;;35.60;20.52;;;;;;;14.91;69.83;100253.22;5000023;28;20044;-62
2021/08/17 05:03:34;;;;;;;38.20;19.90;;;;;;;14.91;69.89;100248.84;5014636;28;20060;-62
2021/08/17 05:06:21;;;;;;;38.50;19.42;;;;;;;14.91;69.76;100250.59;5014859;28;20041;-62
2021/08/17 05:09:05;;;;;;;37.88;19.58;;;;;;;14.91;69.79;100258.44;5014945;28;20559;-62
2021/08/17 05:11:52;;;;;;;37.00;19.17;;;;;;;14.90;69.88;100264.50;5015049;28;20088;-62
2021/08/17 05:14:36;;;;;;;41.78;21.60;;;;;;;14.88;69.80;100269.72;5000135;28;20076;-63
2021/08/17 05:17:31;;;;;;;32.75;18.92;;;;;;;14.89;69.92;100276.66;5000090;28;20462;-64
2021/08/17 05:20:25;;;;;;;39.47;20.83;;;;;;;14.89;70.02;100274.06;4999364;28;20092;-63
2021/08/17 05:23:17;;;;;;;35.20;20.00;;;;;;;14.88;69.94;100277.53;5014835;28;20104;-62
2021/08/17 05:26:01;;;;;;;34.28;18.30;;;;;;;14.88;69.95;100285.38;4999498;28;20045;-62
2021/08/17 05:28:51;;;;;;;33.60;18.02;;;;;;;14.90;69.98;100293.22;5014651;28;20059;-62
2021/08/17 05:31:43;;;;;;;34.67;19.30;;;;;;;14.88;69.93;100285.38;4999297;28;20068;-62
2021/08/17 05:34:39;;;;;;;34.35;20.27;;;;;;;14.88;70.15;100290.59;4999566;28;20052;-62
2021/08/17 05:37:37;;;;;;;37.08;19.10;;;;;;;14.87;69.90;100277.53;5014306;28;20076;-62
2021/08/17 05:40:23;;;;;;;36.70;19.15;;;;;;;14.88;70.05;100279.28;4999175;28;20064;-62
2021/08/17 05:43:16;;;;;;;35.20;19.20;;;;;;;14.87;69.84;100275.78;4999170;28;20072;-62
2021/08/17 05:46:08;;;;;;;33.88;19.33;;;;;;;14.87;69.95;100282.78;4999096;28;20180;-61
2021/08/17 05:48:52;;;;;;;34.30;17.15;;;;;;;14.89;70.04;100281.03;5013598;28;20453;-62
2021/08/17 05:51:36;;;;;;;36.53;20.45;;;;;;;14.88;69.88;100280.16;5013676;28;20608;-63
2021/08/17 05:54:20;;;;;;;30.05;17.52;;;;;;;14.89;70.16;100287.09;5014125;28;20120;-62
2021/08/17 05:57:19;;;;;;;36.58;20.48;;;;;;;14.89;69.91;100289.72;5013893;28;20517;-63
2021/08/17 06:00:05;;;;;;;34.30;18.63;;;;;;;14.88;69.97;100293.19;5014031;28;20048;-63
2021/08/17 06:03:02;;;;;;;37.17;20.33;;;;;;;14.89;69.80;100283.66;4998752;28;20093;-63
2021/08/17 06:05:59;;;;;;;32.20;17.95;;;;;;;14.88;70.15;100279.28;4998553;28;20422;-62
2021/08/17 06:08:54;;;;;;;33.63;17.70;;;;;;;14.89;70.11;100275.81;4999211;28;20049;-62
2021/08/17 06:11:41;;;;;;;40.25;21.08;;;;;;;14.87;70.03;100278.41;5013717;28;20049;-62
2021/08/17 06:14:25;;;;;;;30.50;18.88;;;;;;;14.92;70.06;100288.88;4998875;28;20048;-63
2021/08/17 06:17:17;;;;;;;37.28;19.55;;;;;;;14.92;70.23;100283.66;5013776;28;20056;-63
2021/08/17 06:20:10;;;;;;;36.05;18.40;;;;;;;14.93;70.38;100282.78;4998952;28;20136;-63
2021/08/17 06:23:09;;;;;;;35.90;19.25;;;;;;;14.94;70.31;100281.03;4998986;28;20061;-62
2021/08/17 06:26:04;;;;;;;34.50;19.02;;;;;;;14.92;70.20;100279.28;4999026;28;20125;-63
2021/08/17 06:28:53;;;;;;;32.55;18.23;;;;;;;14.95;70.49;100280.16;4999186;28;20048;-62
2021/08/17 06:31:40;;;;;;;28.48;16.77;;;;;;;14.96;70.21;100282.78;4998985;28;20136;-64
2021/08/17 06:34:33;;;;;;;36.00;18.45;;;;;;;14.97;70.26;100283.66;5013360;28;20044;-61
2021/08/17 06:37:17;;;;;;;39.92;18.67;;;;;;;14.95;70.38;100288.84;4998670;28;20049;-62
2021/08/17 06:40:07;;;;;;;32.35;19.52;;;;;;;14.96;70.30;100285.38;5013282;28;20049;-62
2021/08/17 06:42:55;;;;;;;36.42;19.13;;;;;;;14.96;70.31;100298.44;4999068;28;20053;-63
2021/08/17 06:45:44;;;;;;;32.72;18.73;;;;;;;14.98;70.52;100288.00;5013055;28;20469;-63
2021/08/17 06:48:37;;;;;;;35.13;20.30;;;;;;;14.98;70.59;100290.63;5013423;28;20084;-62
2021/08/17 06:51:27;;;;;;;36.10;18.75;;;;;;;14.97;70.36;100300.16;4998732;28;20112;-62
2021/08/17 06:54:20;;;;;;;33.47;19.35;;;;;;;14.99;70.43;100297.59;4998416;28;20523;-62
2021/08/17 06:57:09;;;;;;;40.45;20.15;;;;;;;14.99;70.48;100311.50;5013115;28;20057;-63
2021/08/17 06:59:59;;;;;;;36.50;19.13;;;;;;;15.00;70.50;100309.78;4999014;28;20491;-63
2021/08/17 07:02:48;;;;;;;33.53;18.27;;;;;;;15.00;70.50;100313.22;5002097;28;20124;-62
2021/08/17 07:05:37;;;;;;;33.72;19.35;;;;;;;15.01;70.64;100311.50;5002201;28;20073;-63
2021/08/17 07:08:24;;;;;;;29.70;18.00;;;;;;;15.01;70.58;100298.47;5017233;28;20044;-63
2021/08/17 07:11:19;;;;;;;33.78;17.67;;;;;;;15.01;70.65;100290.63;5001949;28;20575;-63
2021/08/17 07:14:09;;;;;;;34.80;18.33;;;;;;;14.99;70.76;100280.16;5002586;28;20056;-62
2021/08/17 07:16:53;;;;;;;31.67;18.25;;;;;;;14.99;70.70;100264.50;5002381;28;20045;-62
2021/08/17 07:19:37;;;;;;;33.08;18.55;;;;;;;14.99;70.52;100259.28;5016347;28;20169;-62
2021/08/17 07:22:21;;;;;;;32.70;18.40;;;;;;;15.00;70.77;100266.25;5001780;28;20104;-62
2021/08/17 07:25:09;;;;;;;33.97;18.33;;;;;;;14.99;70.72;100250.63;5016944;28;20089;-62
2021/08/17 07:28:02;;;;;;;32.70;18.10;;;;;;;14.97;70.87;100247.97;5001364;28;20041;-62
2021/08/17 07:30:49;;;;;;;35.47;17.90;;;;;;;14.98;70.75;100251.47;5001718;28;20580;-63
2021/08/17 07:33:36;;;;;;;32.50;18.50;;;;;;;15.00;70.88;100247.13;5001943;28;20052;-63
2021/08/17 07:36:20;;;;;;;33.65;18.50;;;;;;;15.00;70.86;100258.44;5001434;28;20104;-63
2021/08/17 07:39:05;;;;;;;32.35;18.27;;;;;;;15.03;70.69;100254.94;5016032;28;20092;-63
2021/08/17 07:41:52;;;;;;;31.95;18.35;;;;;;;15.02;70.34;100253.22;5016616;28;20133;-63
2021/08/17 07:44:38;;;;;;;35.13;18.52;;;;;;;15.02;70.90;100253.22;5016574;28;20107;-63
2021/08/17 07:47:28;;;;;;;34.83;19.45;;;;;;;15.05;70.74;100263.66;5001586;28;20049;-62
2021/08/17 07:50:16;;;;;;;37.05;19.42;;;;;;;15.06;70.78;100265.38;5001400;28;20045;-63
2021/08/17 07:53:06;;;;;;;39.40;19.27;;;;;;;15.06;71.20;100273.22;5001151;28;20052;-62
2021/08/17 07:55:59;;;;;;;33.95;18.23;;;;;;;15.08;71.15;100274.09;5001591;28;20405;-63
2021/08/17 07:58:46;;;;;;;34.85;19.58;;;;;;;15.08;71.04;100279.31;5016197;28;20057;-62
2021/08/17 08:01:33;;;;;;;33.85;18.05;;;;;;;15.10;71.00;100277.59;5000799;28;20065;-62
2021/08/17 08:04:17;;;;;;;36.42;18.83;;;;;;;15.10;71.00;100282.81;5001309;28;20048;-62
2021/08/17 08:07:01;;;;;;;37.58;19.38;;;;;;;15.10;71.22;100282.81;5015776;28;20441;-62
2021/08/17 08:09:45;;;;;;;37.22;19.38;;;;;;;15.12;71.12;100291.50;5015749;28;20060;-64
2021/08/17 08:12:31;;;;;;;39.78;20.48;;;;;;;15.12;71.15;100288.91;5015393;28;20145;-64
2021/08/17 08:15:18;;;;;;;35.25;18.85;;;;;;;15.14;71.41;100288.88;5015973;28;20052;-64
2021/08/17 08:18:03;;;;;;;32.60;17.60;;;;;;;15.15;71.34;100293.25;5015610;28;20045;-64
2021/08/17 08:20:53;;;;;;;38.05;19.73;;;;;;;15.16;71.28;100298.50;5000950;28;20455;-64
2021/08/17 08:23:38;;;;;;;36.15;19.85;;;;;;;15.17;71.44;100284.56;5001149;28;20045;-64
2021/08/17 08:26:22;;;;;;;39.20;18.80;;;;;;;15.18;71.39;100275.84;5015199;28;20041;-65
2021/08/17 08:29:06;;;;;;;35.70;20.13;;;;;;;15.18;71.26;100270.63;5015503;28;20097;-62
2021/08/17 08:31:52;;;;;;;39.67;19.38;;;;;;;15.20;71.46;100273.25;5015276;28;20049;-62
2021/08/17 08:34:39;;;;;;;32.47;18.17;;;;;;;15.23;71.44;100274.09;5000139;28;20049;-63
2021/08/17 08:37:29;;;;;;;41.05;19.20;;;;;;;15.26;71.42;100288.91;5000632;28;20556;-63
2021/08/17 08:40:20;;;;;;;36.65;18.48;;;;;;;15.27;71.50;100288.03;5000818;28;20448;-62
2021/08/17 08:43:04;;;;;;;33.70;18.27;;;;;;;15.28;71.63;100283.69;5015373;28;20040;-62
2021/08/17 08:45:51;;;;;;;33.92;18.70;;;;;;;15.27;71.58;100266.28;5014912;28;20052;-63
2021/08/17 08:48:35;;;;;;;37.92;18.92;;;;;;;15.29;71.50;100270.63;5015105;28;20095;-63
2021/08/17 08:51:24;;;;;;;36.55;17.63;;;;;;;15.31;71.59;100273.25;5015118;28;20414;-63
2021/08/17 08:54:08;;;;;;;36.88;18.42;;;;;;;15.32;71.39;100264.56;5015381;28;20539;-62
2021/08/17 08:56:58;;;;;;;33.53;18.17;;;;;;;15.32;71.35;100264.56;5015376;28;20100;-63
2021/08/17 08:59:41;;;;;;;37.13;18.85;;;;;;;15.32;71.65;100270.63;5000497;28;20096;-62
2021/08/17 09:02:30;;;;;;;31.85;17.38;;;;;;;15.32;71.78;100267.16;5015212;28;20068;-62
2021/08/17 09:05:18;;;;;;;33.17;17.42;;;;;;;15.33;71.57;100269.75;5000068;28;20176;-62
2021/08/17 09:08:03;;;;;;;33.03;17.75;;;;;;;15.33;71.69;100255.84;5014608;28;20057;-64
2021/08/17 09:10:47;;;;;;;37.15;18.38;;;;;;;15.35;71.74;100251.47;4999521;28;20045;-62
2021/08/17 09:13:34;;;;;;;29.48;17.92;;;;;;;15.36;71.75;100258.44;5014800;28;20132;-63
2021/08/17 09:16:32;;;;;;;35.22;17.13;;;;;;;15.36;71.52;100266.28;4999229;28;20530;-63
2021/08/17 09:19:57;;;;;;;36.63;18.88;;;;;;;15.37;71.57;100263.69;4999394;28;20400;-62
2021/08/17 09:22:42;;;;;;;34.90;17.90;;;;;;;15.36;71.82;100266.28;4916316;29;20105;-62
2021/08/17 09:25:33;;;;;;;29.95;17.98;;;;;;;15.37;71.67;100268.00;4902399;29;20154;-63
2021/08/17 09:28:31;;;;;;;31.05;17.48;;;;;;;15.37;71.71;100260.19;4991337;28;20053;-63
2021/08/17 09:31:36;;;;;;;32.60;16.58;;;;;;;15.36;71.82;100268.88;4999373;28;20169;-63
2021/08/17 09:34:28;;;;;;;;;;;;;;;15.35;71.61;100259.31;4999995;28;20107;-63
2021/08/17 09:37:13;;;;;;;36.22;17.77;;;;;;;15.35;71.63;100264.53;4999772;28;20312;-63
2021/08/17 09:40:01;;;;;;;30.80;17.67;;;;;;;15.34;71.11;100261.06;5014952;28;20120;-63
2021/08/17 09:42:45;;;;;;;27.05;16.42;;;;;;;15.35;71.67;100261.91;4999293;28;20041;-62
2021/08/17 09:45:33;;;;;;;33.70;18.77;;;;;;;15.35;71.65;100265.41;5013909;28;20049;-63
2021/08/17 09:48:29;;;;;;;30.42;17.08;;;;;;;15.34;71.56;100270.63;4999557;28;20076;-63
2021/08/17 09:51:30;;;;;;;37.47;18.42;;;;;;;15.34;71.62;100266.28;5013883;28;20093;-63
2021/08/17 09:54:25;;;;;;;30.00;17.48;;;;;;;15.35;71.51;100254.09;4999297;28;20181;-63
2021/08/17 09:57:09;;;;;;;33.13;18.40;;;;;;;15.35;71.67;100260.19;4999484;28;20052;-62
2021/08/17 09:59:53;;;;;;;;;;;;;;;15.34;71.48;100271.50;4999830;28;20072;-63
2021/08/17 10:02:38;;;;;;;28.30;16.25;;;;;;;15.34;71.55;100275.84;5014191;28;19972;-62
2021/08/17 10:05:23;;;;;;;26.20;16.25;;;;;;;15.32;71.78;100273.25;4999330;28;20092;-64
2021/08/17 10:08:13;;;;;;;26.88;15.52;;;;;;;15.34;71.50;100262.78;4998991;28;20556;-65
2021/08/17 10:10:59;;;;;;;26.75;15.85;;;;;;;15.34;71.72;100275.84;4998869;28;20048;-64
2021/08/17 10:13:46;;;;;;;33.20;16.48;;;;;;;15.34;71.58;100276.72;4998869;28;20115;-64
2021/08/17 10:16:36;;;;;;;28.75;15.38;;;;;;;15.33;71.71;100275.00;4999015;28;20049;-64
2021/08/17 10:19:23;;;;;;;26.33;15.07;;;;;;;15.34;71.60;100263.69;5013533;28;20088;-63
2021/08/17 10:22:07;;;;;;;24.00;14.95;;;;;;;15.34;71.49;100268.91;4998823;28;20524;-63
2021/08/17 10:24:51;;;;;;;27.70;16.45;;;;;;;15.34;71.42;100273.22;5013665;28;20080;-62
2021/08/17 10:27:36;;;;;;;25.63;15.40;;;;;;;15.34;71.17;100270.63;5013259;28;20081;-63
2021/08/17 10:30:22;;;;;;;28.60;15.77;;;;;;;15.35;71.40;100274.97;5013733;28;20052;-65
2021/08/17 10:33:09;;;;;;;24.98;14.38;;;;;;;15.34;71.49;100275.84;5013289;28;20080;-62
2021/08/17 10:35:55;;;;;;;26.50;14.80;;;;;;;15.34;71.31;100270.63;5000870;28;20049;-63
2021/08/17 10:38:47;;;;;;;23.80;15.07;;;;;;;15.33;71.43;100263.69;5002605;28;20103;-63
2021/08/17 10:41:36;;;;;;;26.45;14.68;;;;;;;15.33;71.26;100263.69;5017730;28;20504;-62
2021/08/17 10:44:24;;;;;;;25.33;13.73;;;;;;;15.34;71.38;100265.41;5017586;28;20401;-62
2021/08/17 10:47:12;;;;;;;24.20;14.55;;;;;;;15.34;71.44;100249.72;5003004;28;20044;-63
2021/08/17 10:49:56;;;;;;;24.23;13.50;;;;;;;15.33;71.29;100248.88;5002583;28;20203;-63
2021/08/17 10:52:41;;;;;;;22.48;14.48;;;;;;;15.33;71.42;100245.41;5017455;28;20053;-62
2021/08/17 10:55:26;;;;;;;;;;;;;;;15.32;71.25;100230.63;5018056;28;20084;-62
2021/08/17 10:58:11;;;;;;;31.70;15.20;;;;;;;15.32;71.36;100235.84;5002322;28;19971;-62
2021/08/17 11:00:56;;;;;;;21.50;13.35;;;;;;;15.32;71.32;100235.84;5017146;28;20048;-63
2021/08/17 11:03:50;;;;;;;22.58;12.52;;;;;;;15.33;71.35;100235.81;5002537;28;20468;-63
2021/08/17 11:06:49;;;;;;;27.33;14.05;;;;;;;15.34;71.32;100223.63;5001941;28;20126;-63
2021/08/17 11:09:43;;;;;;;21.88;12.77;;;;;;;15.35;71.27;100225.34;5017005;28;20088;-62
2021/08/17 11:12:36;;;;;;;20.98;12.38;;;;;;;15.35;71.23;100221.03;5002298;28;20121;-64
2021/08/17 11:15:26;;;;;;;21.77;12.88;;;;;;;15.35;71.40;100215.81;5001935;28;20053;-64
2021/08/17 11:18:10;;;;;;;20.33;12.15;;;;;;;15.36;71.23;100214.03;5001774;28;20119;-64
2021/08/17 11:20:57;;;;;;;23.67;12.27;;;;;;;15.33;71.10;100212.31;5016384;28;20127;-64
2021/08/17 11:23:42;;;;;;;20.55;12.20;;;;;;;15.33;71.16;100204.47;5002173;28;20457;-62
2021/08/17 11:26:32;;;;;;;20.20;11.93;;;;;;;15.33;71.28;100212.31;5001379;28;20084;-62
2021/08/17 11:29:26;;;;;;;23.15;12.40;;;;;;;15.35;71.31;100212.31;5001742;28;20053;-63
2021/08/17 11:32:24;;;;;;;18.05;12.35;;;;;;;15.36;71.29;100216.66;5002026;28;20069;-62
2021/08/17 11:35:20;;;;;;;20.42;11.43;;;;;;;15.34;71.08;100207.94;5002226;28;20120;-63
2021/08/17 11:38:04;;;;;;;19.98;10.50;;;;;;;15.35;71.12;100209.69;5001808;28;20053;-64
2021/08/17 11:40:48;;;;;;;18.67;10.60;;;;;;;15.34;71.03;100203.63;5001822;28;20045;-64
2021/08/17 11:43:35;;;;;;;19.40;11.05;;;;;;;15.35;71.17;100209.69;5016181;28;20052;-64
2021/08/17 11:46:23;;;;;;;20.17;9.60;;;;;;;15.35;71.16;100217.53;5015374;28;20045;-64
2021/08/17 11:49:27;;;;;;;17.08;9.52;;;;;;;15.35;70.88;100212.31;5001810;28;20108;-62
2021/08/17 11:52:17;;;;;;;17.15;9.07;;;;;;;15.33;70.84;100201.88;5015800;28;20060;-62
2021/08/17 11:55:04;;;;;;;13.98;9.57;;;;;;;15.35;70.80;100209.69;5001089;28;20180;-63
2021/08/17 11:58:00;;;;;;;16.88;9.57;;;;;;;15.34;70.95;100213.16;5015931;28;20037;-64
2021/08/17 12:00:47;;;;;;;16.30;9.55;;;;;;;15.35;71.32;100207.09;5001751;28;20096;-64
2021/08/17 12:03:31;;;;;;;17.98;9.85;;;;;;;15.34;70.91;100207.94;5001057;28;20520;-64
2021/08/17 12:06:15;;;;;;;15.25;8.10;;;;;;;15.33;70.83;100211.47;5015900;28;20560;-63
2021/08/17 12:09:18;;;;;;;;;;;;;;;15.33;70.81;100211.47;5016720;28;20053;-63
2021/08/17 12:12:07;;;;;;;16.95;8.68;;;;;;;15.30;70.86;100207.09;5015492;28;20388;-64
2021/08/17 12:15:08;;;;;;;14.80;8.30;;;;;;;15.29;70.79;100202.75;5001236;28;20111;-62
2021/08/17 12:18:16;;;;;;;12.45;8.27;;;;;;;15.29;70.98;100214.94;5001072;28;20056;-63
2021/08/17 12:21:08;;;;;;;12.07;7.47;;;;;;;15.29;70.83;100222.78;5015735;28;20168;-63
2021/08/17 12:23:52;;;;;;;16.38;8.13;;;;;;;15.30;71.01;100224.50;5015501;28;20099;-63
2021/08/17 12:26:35;;;;;;;13.88;7.13;;;;;;;15.29;70.98;100235.81;5015295;28;20041;-63
2021/08/17 12:29:23;;;;;;;12.38;7.82;;;;;;;15.28;70.82;100228.88;5000500;28;20097;-63
2021/08/17 12:32:19;;;;;;;13.77;7.75;;;;;;;15.28;70.92;100224.50;5000580;28;20409;-63
2021/08/17 12:35:07;;;;;;;12.70;7.38;;;;;;;15.29;71.10;100228.00;5000935;28;20053;-64
2021/08/17 12:38:15;;;;;;;12.32;7.25;;;;;;;15.28;70.99;100228.88;5000942;28;20064;-64
2021/08/17 12:40:59;;;;;;;11.15;7.25;;;;;;;15.29;70.86;100233.22;5000684;28;20049;-63
2021/08/17 12:43:43;;;;;;;10.45;6.80;;;;;;;15.26;71.09;100234.06;5015584;28;20084;-64
2021/08/17 12:46:38;;;;;;;10.00;6.30;;;;;;;15.24;71.04;100233.22;5000106;28;20513;-64
2021/08/17 12:49:46;;;;;;;10.98;6.90;;;;;;;15.23;71.16;100236.69;5015176;28;20077;-64
2021/08/17 12:52:52;;;;;;;11.88;7.00;;;;;;;15.24;71.17;100225.38;5000777;28;20107;-64